Meteo Giornale » Osservazioni meteo Italia » Bari-Palese Macchie

ore: 03:20 - Osservazioni Meteo Bari-Palese Macchie
Lat. 41° 8' N Lon. 16° 47' E Alt. 34 metri s.l.m.

sereno Europe/Rome

14 °C

Sereno

Temp. 24 Ore

14 °C

23 °C

Sud-Ovest

9.3 Km/h

Dew point 10 °C

Umidità 76 %

Visibilità  10 Km

Il sole sorge alle ore 05:22

Il sole tramonta alle ore 20:18

Data e Ora Cielo e Fenomeni T °C DP °C Um. % Pres. hPa Vis. km Vento km/h
Oggi h: 03:20 sereno Sereno 14 10 76 1017 10 SO 9.3
Oggi h: 02:50 sereno Sereno 14 10 76 1018 10 SO 9.3
Oggi h: 02:20 sereno Sereno 15 10 72 1019 10 O/SO 7.4
Oggi h: 01:50 sereno Sereno 15 10 72 1019 10 O/SO 7.4
Oggi h: 01:20 sereno Sereno 15 11 76 1019 10 O 7.4
Oggi h: 00:50 sereno Sereno 16 11 72 1020 10 O 9.3
Oggi h: 00:20 sereno Sereno 15 10 72 1020 10 N 5.5
Ieri h: 23:50 sereno Sereno 16 11 72 1020 10 N 3.7
Ieri h: 23:20 sereno Sereno 17 11 67 1020 10 N 5.5
Ieri h: 22:50 sereno Sereno 17 12 72 1020 10 N 5.5
Ieri h: 22:20 sereno Sereno 17 12 72 1020 10 N 5.5
Ieri h: 21:50 sereno Sereno 19 13 68 1020 10 N 9.3
Ieri h: 21:20 sereno Sereno 19 13 68 1019 10 N 7.4
Ieri h: 20:50 sereno Sereno 20 14 68 1019 10 N 5.5
Ieri h: 20:20 sereno Sereno 20 13 64 1019 10 N 7.4
Ieri h: 19:50 sereno Sereno 21 12 56 1019 10 N 13
Ieri h: 19:20 sereno Sereno 21 11 52 1019 10 N 11.1
Ieri h: 18:50 sereno Sereno 22 9 43 1018 10 N 13
Ieri h: 18:20 sereno Sereno 22 9 43 1018 10 N 13
Ieri h: 17:50 sereno Sereno 22 10 46 1019 10 N 13
Ieri h: 17:20 sereno Sereno 23 10 43 1019 10 NE 11.1
Ieri h: 16:50 sereno Sereno 23 8 38 1019 10 N 14.8
Ieri h: 16:20 sereno Sereno 23 10 43 1019 10 N/NE 13
Ieri h: 15:50 sereno Sereno 23 11 46 1019 10 N 18.5
Ieri h: 15:20 sereno Sereno 23 11 46 1019 10 N/NE 14.8
Ieri h: 14:50 sereno Sereno 23 10 43 1019 10 N 14.8
Ieri h: 14:20 sereno Sereno 23 11 46 1020 10 N/NE 13
Ieri h: 13:50 sereno Sereno 22 10 46 1020 10 N/NE 13
Ieri h: 13:20 sereno Sereno 23 13 53 1020 10 N 14.8
Ieri h: 12:50 sereno Sereno 23 11 46 1020 10 N/NE 13
Ieri h: 12:20 sereno Sereno 23 10 43 1020 10 N/NE 13
Ieri h: 11:50 sereno Sereno 22 11 49 1020 10 N 16.7
Ieri h: 11:20 sereno Sereno 23 14 56 1020 10 N 14.8
Ieri h: 10:50 sereno Sereno 22 13 56 1019 10 N 18.5
Ieri h: 10:20 sereno Sereno 21 13 60 1019 10 N 20.3
Ieri h: 09:50 sereno Sereno 21 13 60 1019 10 N 20.3
Ieri h: 09:20 sereno Sereno 21 13 60 1019 10 N 16.7
Ieri h: 08:50 sereno Sereno 21 13 60 1019 10 N 20.3
Ieri h: 08:20 sereno Sereno 21 12 56 1019 10 N/NO 13
Ieri h: 07:50 sereno Sereno 21 12 56 1019 10 N/NO 11.1
Ieri h: 07:20 sereno Sereno 19 12 63 1019 10 NO 11.1
Ieri h: 06:50 sereno Sereno 18 12 67 1018 10 O/NO 9.3
Ieri h: 06:20 sereno Sereno 17 13 77 1018 10 NO 9.3
Ieri h: 05:50 sereno Sereno 16 12 77 1018 10 O/NO 7.4
Ieri h: 05:20 sereno Sereno 16 12 77 1018 10 O 9.3
Ieri h: 04:50 sereno Sereno 16 12 77 1018 10 O 9.3
Ieri h: 04:20 sereno Sereno 17 12 72 1018 10 O/NO 9.3
Ieri h: 03:50 sereno Sereno 17 12 72 1018 10 O/NO 9.3